Mora, New Mexico
Current Conditions -  °F | °C
As of 9:53 PM on Friday 24 Oct 2014 (Local Time) from KLVS Reporting Station
Clear Clear  
Wind Chill: 51°   Ceiling: Unl
Heat Index: 51°   Visibility: 10mi
Dew Point: 25°   Wind: 9mph
Humidity: 36%   Direction: 10°N
Pressure: 30.33"   Gusts: NA
Location:  35.97°N, 105.33°W
Report Text: KLVS 250353Z AUTO 01008KT 10SM CLR 11/M04 A3033 RMK AO2 SLP189 T01061039
Loading
Personal Weather Stations






























Interactive Weather Map
Tropical Storm Tracking
New forecast layout! Learn more

10-Day Weather Forecast

Advertisements
Track Severe Weather on mobile